| time (UTC) | temp C | wind direction | speed KPH | gust KPH | rain 1hr cm | rain 24hr cm | rain mn cm | humidity % | barometer mb |
| 20260510105138 | 13 | 235 | 1.6 | 3.2 | 0.00 | 0.00 | 0.00 | 90 | 1014.4 |
| 20260510104635 | 13 | 175 | 3.2 | 3.2 | 0.00 | 0.00 | 0.00 | 91 | 1014.0 |
| 20260510104132 | 13 | 170 | 1.6 | 1.6 | 0.00 | 0.00 | 0.00 | 91 | 1014.0 |
| 20260510103629 | 12 | 170 | 1.6 | 1.6 | 0.00 | 0.00 | 0.00 | 91 | 1013.8 |
| 20260510103125 | 13 | 159 | 3.2 | 1.6 | 0.00 | 0.00 | 0.00 | 92 | 1013.7 |
| 20260510102620 | 12 | 117 | 1.6 | 1.6 | 0.00 | 0.00 | 0.00 | 92 | 1013.5 |
| 20260510102116 | 12 | 117 | 1.6 | 1.6 | 0.00 | 0.00 | 0.00 | 93 | 1013.4 |
| 20260510101615 | 12 | 117 | 0.0 | 0.0 | 0.00 | 0.00 | 0.00 | 93 | 1013.7 |
| 20260510101112 | 12 | 116 | 0.0 | 0.0 | 0.00 | 0.00 | 0.00 | 93 | 1013.5 |
| 20260510100608 | 12 | 118 | 0.0 | 0.0 | 0.00 | 0.00 | 0.00 | 94 | 1013.2 |
| 20260510100106 | 12 | 116 | 1.6 | 1.6 | 0.00 | 0.00 | 0.00 | 93 | 1013.3 |
| 20260510095601 | 12 | 114 | 0.0 | 0.0 | 0.00 | 0.00 | 0.00 | 93 | 1013.2 |
| 20260510095056 | 12 | 117 | 0.0 | 0.0 | 0.00 | 0.00 | 0.00 | 93 | 1013.2 |
| 20260510094555 | 12 | 114 | 0.0 | 0.0 | 0.00 | 0.00 | 0.00 | 93 | 1013.1 |
| 20260510094051 | 12 | 117 | 0.0 | 0.0 | 0.00 | 0.00 | 0.00 | 92 | 1013.0 |
| 20260510093547 | 12 | 117 | 0.0 | 0.0 | 0.00 | 0.00 | 0.00 | 92 | 1012.8 |
| 20260510093044 | 12 | 114 | 1.6 | 1.6 | 0.00 | 0.00 | 0.00 | 92 | 1012.8 |
| 20260510092541 | 12 | 117 | 1.6 | 0.0 | 0.00 | 0.00 | 0.00 | 92 | 1012.9 |
| 20260510092040 | 12 | 117 | 0.0 | 0.0 | 0.00 | 0.00 | 0.00 | 92 | 1012.7 |
| 20260510091538 | 12 | 117 | 0.0 | 0.0 | 0.00 | 0.00 | 0.00 | 91 | 1012.5 |
| 20260510091033 | 13 | 117 | 0.0 | 0.0 | 0.00 | 0.00 | 0.00 | 91 | 1012.6 |
| 20260510090531 | 13 | 117 | 0.0 | 0.0 | 0.00 | 0.00 | 0.00 | 90 | 1012.3 |
| 20260510090026 | 13 | 114 | 0.0 | 0.0 | 0.00 | 0.00 | 0.00 | 90 | 1012.4 |
| 20260510085527 | 13 | 117 | 1.6 | 0.0 | 0.00 | 0.00 | 0.00 | 89 | 1012.3 |
| 20260510085023 | 13 | 114 | 0.0 | 0.0 | 0.00 | 0.00 | 0.00 | 89 | 1012.3 |
| 20260510084520 | 13 | 117 | 1.6 | 1.6 | 0.00 | 0.00 | 0.00 | 88 | 1012.5 |
| 20260510084017 | 13 | 112 | 0.0 | 0.0 | 0.00 | 0.00 | 0.00 | 87 | 1012.4 |
| 20260510083513 | 13 | 112 | 0.0 | 0.0 | 0.00 | 0.00 | 0.00 | 87 | 1012.4 |
| 20260510083009 | 13 | 112 | 0.0 | 0.0 | 0.00 | 0.00 | 0.00 | 86 | 1012.3 |
| 20260510082507 | 14 | 112 | 0.0 | 0.0 | 0.00 | 0.00 | 0.00 | 85 | 1012.3 |
| 20260510082007 | 15 | 113 | 1.6 | 1.6 | 0.00 | 0.00 | 0.00 | 84 | 1012.2 |
| 20260510081502 | 15 | 112 | 0.0 | 0.0 | 0.00 | 0.00 | 0.00 | 83 | 1012.2 |
| 20260510080958 | 15 | 113 | 0.0 | 0.0 | 0.00 | 0.00 | 0.00 | 83 | 1012.1 |
| 20260510080457 | 15 | 113 | 0.0 | 0.0 | 0.00 | 0.00 | 0.00 | 81 | 1012.2 |
| 20260510075954 | 15 | 112 | 1.6 | 1.6 | 0.00 | 0.00 | 0.00 | 82 | 1012.3 |
| 20260510075452 | 15 | 112 | 0.0 | 0.0 | 0.00 | 0.00 | 0.00 | 80 | 1012.1 |
| 20260510074948 | 15 | 112 | 0.0 | 0.0 | 0.00 | 0.00 | 0.00 | 80 | 1012.2 |
| 20260510074446 | 15 | 112 | 0.0 | 0.0 | 0.00 | 0.00 | 0.00 | 81 | 1012.1 |
| 20260510073942 | 15 | 123 | 0.0 | 0.0 | 0.00 | 0.00 | 0.00 | 80 | 1012.2 |
| 20260510073437 | 16 | 110 | 0.0 | 0.0 | 0.00 | 0.00 | 0.00 | 79 | 1012.2 |
| 20260510072934 | 16 | 151 | 0.0 | 1.6 | 0.00 | 0.00 | 0.00 | 78 | 1012.1 |
| 20260510072431 | 16 | 169 | 1.6 | 3.2 | 0.00 | 0.00 | 0.00 | 77 | 1012.0 |
| 20260510071926 | 16 | 185 | 1.6 | 1.6 | 0.00 | 0.00 | 0.00 | 77 | 1011.9 |
| 20260510071423 | 16 | 155 | 1.6 | 1.6 | 0.00 | 0.00 | 0.00 | 77 | 1012.0 |
| 20260510070921 | 16 | 306 | 3.2 | 4.8 | 0.00 | 0.00 | 0.00 | 76 | 1012.0 |
| 20260510070418 | 16 | 137 | 1.6 | 1.6 | 0.00 | 0.00 | 0.00 | 77 | 1012.1 |
| 20260510065913 | 16 | 146 | 1.6 | 1.6 | 0.00 | 0.00 | 0.00 | 77 | 1012.1 |
| 20260510065410 | 16 | 309 | 4.8 | 4.8 | 0.00 | 0.00 | 0.00 | 76 | 1012.3 |
| 20260510064907 | 16 | 285 | 8.0 | 12.9 | 0.00 | 0.00 | 0.00 | 76 | 1012.4 |
| 20260510064405 | 16 | 289 | 6.4 | 6.4 | 0.00 | 0.00 | 0.00 | 78 | 1012.5 |
| 20260510063900 | 16 | 200 | 3.2 | 3.2 | 0.00 | 0.00 | 0.00 | 78 | 1012.3 |
| 20260510063357 | 16 | 243 | 6.4 | 4.8 | 0.00 | 0.00 | 0.00 | 79 | 1012.2 |
| 20260510062854 | 16 | 263 | 8.0 | 9.7 | 0.00 | 0.00 | 0.00 | 78 | 1012.0 |
| 20260510062349 | 16 | 245 | 4.8 | 4.8 | 0.00 | 0.00 | 0.00 | 79 | 1012.2 |
| 20260510061845 | 16 | 253 | 8.0 | 12.9 | 0.00 | 0.00 | 0.00 | 79 | 1011.9 |
| 20260510061342 | 16 | 277 | 3.2 | 3.2 | 0.00 | 0.00 | 0.00 | 79 | 1012.0 |
| 20260510060838 | 16 | 286 | 1.6 | 3.2 | 0.00 | 0.00 | 0.00 | 79 | 1012.1 |
| 20260510060335 | 17 | 270 | 9.7 | 12.9 | 0.00 | 0.00 | 0.00 | 79 | 1012.1 |
| 20260510055832 | 17 | 278 | 17.7 | 22.5 | 0.00 | 0.00 | 0.00 | 78 | 1012.2 |
| 20260510055331 | 15 | 243 | 8.0 | 11.3 | 0.00 | 0.00 | 0.00 | 94 | 1012.7 |
| 20260510054831 | 15 | 161 | 1.6 | 1.6 | 0.00 | 0.00 | 0.00 | 94 | 1011.1 |
| 20260510054326 | 15 | 161 | 1.6 | 0.0 | 0.00 | 0.00 | 0.00 | 94 | 1010.7 |
| 20260510053821 | 15 | 161 | 0.0 | 0.0 | 0.00 | 0.00 | 0.00 | 94 | 1010.8 |
| 20260510053317 | 15 | 161 | 0.0 | 0.0 | 0.00 | 0.00 | 0.00 | 94 | 1010.6 |
| 20260510052814 | 15 | 161 | 0.0 | 0.0 | 0.00 | 0.00 | 0.00 | 94 | 1010.5 |
| 20260510052309 | 15 | 161 | 0.0 | 0.0 | 0.00 | 0.00 | 0.00 | 94 | 1010.7 |
| 20260510051806 | 15 | 161 | 0.0 | 0.0 | 0.00 | 0.00 | 0.00 | 94 | 1010.6 |
| 20260510051303 | 15 | 161 | 0.0 | 0.0 | 0.00 | 0.00 | 0.00 | 93 | 1010.9 |
| 20260510050800 | 15 | 161 | 0.0 | 0.0 | 0.00 | 0.00 | 0.00 | 93 | 1010.8 |
| 20260510050256 | 15 | 161 | 0.0 | 0.0 | 0.00 | 0.00 | 0.00 | 93 | 1010.8 |
| 20260510045754 | 15 | 161 | 0.0 | 0.0 | 0.00 | 0.74 | 0.74 | 93 | 1010.7 |
| 20260510045250 | 15 | 161 | 0.0 | 0.0 | 0.00 | 0.74 | 0.74 | 93 | 1010.6 |
| 20260510044747 | 15 | 161 | 0.0 | 0.0 | 0.00 | 0.74 | 0.74 | 93 | 1010.7 |
| 20260510044244 | 15 | 161 | 1.6 | 1.6 | 0.00 | 0.74 | 0.74 | 92 | 1010.8 |
| 20260510043740 | 15 | 161 | 0.0 | 0.0 | 0.00 | 0.74 | 0.74 | 92 | 1010.7 |
| 20260510043237 | 15 | 161 | 0.0 | 0.0 | 0.00 | 0.74 | 0.74 | 92 | 1010.8 |
| 20260510042734 | 15 | 161 | 0.0 | 0.0 | 0.00 | 0.74 | 0.74 | 92 | 1010.9 |
| 20260510042229 | 15 | 161 | 1.6 | 0.0 | 0.00 | 0.74 | 0.74 | 92 | 1010.8 |
| 20260510041726 | 15 | 161 | 1.6 | 0.0 | 0.00 | 0.74 | 0.74 | 93 | 1010.8 |
| 20260510041224 | 15 | 161 | 0.0 | 0.0 | 0.00 | 0.74 | 0.74 | 93 | 1010.7 |
| 20260510040721 | 15 | 161 | 1.6 | 1.6 | 0.00 | 0.74 | 0.74 | 93 | 1010.6 |
| 20260510040218 | 15 | 161 | 0.0 | 0.0 | 0.00 | 0.74 | 0.74 | 93 | 1010.9 |
| 20260510035713 | 15 | 161 | 0.0 | 0.0 | 0.00 | 0.74 | 0.74 | 93 | 1011.0 |
| 20260510035209 | 15 | 161 | 0.0 | 0.0 | 0.00 | 0.74 | 0.74 | 92 | 1010.9 |
| 20260510034705 | 15 | 161 | 0.0 | 0.0 | 0.00 | 0.74 | 0.74 | 92 | 1010.8 |
| 20260510034203 | 15 | 161 | 0.0 | 0.0 | 0.00 | 0.74 | 0.74 | 91 | 1010.9 |
| 20260510033658 | 15 | 161 | 0.0 | 0.0 | 0.00 | 0.74 | 0.74 | 91 | 1010.9 |
| 20260510033157 | 15 | 161 | 0.0 | 0.0 | 0.00 | 0.74 | 0.74 | 90 | 1011.0 |
| 20260510032653 | 15 | 161 | 0.0 | 0.0 | 0.00 | 0.74 | 0.74 | 90 | 1011.0 |
| 20260510032149 | 15 | 161 | 0.0 | 0.0 | 0.00 | 0.74 | 0.74 | 90 | 1011.0 |
| 20260510031643 | 15 | 161 | 0.0 | 0.0 | 0.00 | 0.74 | 0.74 | 90 | 1010.8 |
| 20260510031141 | 15 | 161 | 0.0 | 0.0 | 0.00 | 0.74 | 0.74 | 90 | 1010.7 |
| 20260510030640 | 15 | 161 | 0.0 | 0.0 | 0.00 | 0.74 | 0.74 | 89 | 1010.9 |
| 20260510030138 | 15 | 161 | 0.0 | 0.0 | 0.00 | 0.74 | 0.74 | 88 | 1011.0 |
| 20260510025635 | 15 | 161 | 0.0 | 0.0 | 0.00 | 0.74 | 0.74 | 87 | 1010.7 |
| 20260510025132 | 15 | 161 | 0.0 | 0.0 | 0.00 | 0.74 | 0.74 | 87 | 1010.8 |
| 20260510024629 | 15 | 161 | 0.0 | 0.0 | 0.00 | 0.74 | 0.74 | 89 | 1010.8 |
| 20260510024126 | 15 | 161 | 0.0 | 0.0 | 0.00 | 0.74 | 0.74 | 87 | 1010.6 |
| 20260510023622 | 15 | 161 | 1.6 | 1.6 | 0.00 | 0.74 | 0.74 | 86 | 1010.6 |
| 20260510023119 | 16 | 161 | 0.0 | 0.0 | 0.00 | 0.74 | 0.74 | 86 | 1010.8 |
| 20260510022619 | 16 | 161 | 0.0 | 0.0 | 0.00 | 0.74 | 0.74 | 85 | 1010.6 |
| 20260510022114 | 16 | 161 | 0.0 | 0.0 | 0.00 | 0.74 | 0.74 | 84 | 1010.3 |
| 20260510021610 | 16 | 161 | 1.6 | 0.0 | 0.00 | 0.74 | 0.74 | 83 | 1010.3 |
| 20260510021109 | 16 | 161 | 0.0 | 0.0 | 0.00 | 0.74 | 0.74 | 81 | 1010.4 |
| 20260510020608 | 16 | 161 | 0.0 | 0.0 | 0.00 | 0.74 | 0.74 | 82 | 1010.1 |
| 20260510020103 | 16 | 161 | 0.0 | 0.0 | 0.00 | 0.74 | 0.74 | 83 | 1010.3 |
| 20260510015600 | 16 | 161 | 0.0 | 0.0 | 0.00 | 0.74 | 0.74 | 82 | 1010.0 |
| 20260510015056 | 16 | 161 | 0.0 | 0.0 | 0.00 | 0.74 | 0.74 | 82 | 1009.9 |
| 20260510014552 | 16 | 161 | 0.0 | 0.0 | 0.00 | 0.74 | 0.74 | 78 | 1009.7 |
| 20260510014050 | 17 | 161 | 0.0 | 0.0 | 0.00 | 0.74 | 0.74 | 77 | 1009.9 |
| 20260510013544 | 17 | 161 | 1.6 | 1.6 | 0.00 | 0.74 | 0.74 | 77 | 1009.8 |
| 20260510013040 | 17 | 161 | 0.0 | 0.0 | 0.00 | 0.74 | 0.74 | 75 | 1009.7 |
| 20260510012539 | 17 | 161 | 0.0 | 0.0 | 0.00 | 0.74 | 0.74 | 75 | 1009.7 |
| 20260510012036 | 18 | 161 | 0.0 | 0.0 | 0.00 | 0.74 | 0.74 | 75 | 1009.5 |
| 20260510011536 | 18 | 161 | 0.0 | 0.0 | 0.00 | 0.74 | 0.74 | 72 | 1009.5 |
| 20260510011032 | 18 | 161 | 0.0 | 0.0 | 0.00 | 0.74 | 0.74 | 69 | 1009.1 |
| 20260510010529 | 19 | 161 | 1.6 | 0.0 | 0.00 | 0.74 | 0.74 | 68 | 1009.5 |
| 20260510010026 | 20 | 161 | 1.6 | 0.0 | 0.00 | 0.74 | 0.74 | 67 | 1009.3 |
| 20260510005521 | 20 | 161 | 0.0 | 0.0 | 0.00 | 0.74 | 0.74 | 66 | 1009.4 |
| 20260510005019 | 21 | 161 | 0.0 | 0.0 | 0.00 | 0.74 | 0.74 | 64 | 1009.2 |
| 20260510004517 | 21 | 161 | 0.0 | 0.0 | 0.00 | 0.74 | 0.74 | 62 | 1009.0 |
| 20260510004015 | 21 | 161 | 0.0 | 0.0 | 0.00 | 0.74 | 0.74 | 62 | 1009.1 |
| 20260510003511 | 21 | 161 | 0.0 | 0.0 | 0.00 | 0.74 | 0.74 | 61 | 1008.9 |
| 20260510003006 | 22 | 161 | 1.6 | 1.6 | 0.00 | 0.74 | 0.74 | 59 | 1008.8 |
| 20260510002502 | 22 | 161 | 0.0 | 0.0 | 0.00 | 0.74 | 0.74 | 60 | 1008.7 |
| 20260510001959 | 22 | 161 | 0.0 | 0.0 | 0.00 | 0.74 | 0.74 | 61 | 1008.5 |
| 20260510001457 | 23 | 161 | 0.0 | 0.0 | 0.00 | 0.74 | 0.74 | 62 | 1008.8 |
| 20260510000954 | 23 | 161 | 0.0 | 0.0 | 0.00 | 0.74 | 0.74 | 58 | 1008.4 |
| 20260510000450 | 24 | 161 | 1.6 | 1.6 | 0.00 | 0.74 | 0.74 | 55 | 1008.8 |
| 20260509235947 | 25 | 148 | 1.6 | 1.6 | 0.00 | 0.74 | 0.74 | 53 | 1008.5 |
| 20260509235443 | 25 | 161 | 1.6 | 1.6 | 0.00 | 0.74 | 0.74 | 53 | 1008.5 |
| 20260509234940 | 25 | 288 | 3.2 | 1.6 | 0.00 | 0.74 | 0.74 | 53 | 1008.5 |
| 20260509234437 | 25 | 278 | 3.2 | 3.2 | 0.00 | 0.74 | 0.74 | 52 | 1008.4 |
| 20260509233934 | 25 | 188 | 1.6 | 1.6 | 0.00 | 0.74 | 0.74 | 52 | 1008.4 |
| 20260509233432 | 25 | 151 | 0.0 | 0.0 | 0.00 | 0.74 | 0.74 | 52 | 1008.6 |
| 20260509232928 | 25 | 154 | 0.0 | 0.0 | 0.00 | 0.74 | 0.74 | 52 | 1008.6 |
| 20260509232426 | 25 | 194 | 3.2 | 1.6 | 0.00 | 0.74 | 0.74 | 51 | 1008.4 |
| 20260509231921 | 25 | 354 | 1.6 | 1.6 | 0.00 | 0.74 | 0.74 | 52 | 1008.7 |
| 20260509231418 | 25 | 152 | 1.6 | 1.6 | 0.00 | 0.74 | 0.74 | 50 | 1008.5 |
| 20260509230916 | 25 | 313 | 3.2 | 4.8 | 0.00 | 0.74 | 0.74 | 50 | 1008.6 |
| 20260509230413 | 25 | 208 | 3.2 | 3.2 | 0.00 | 0.74 | 0.74 | 49 | 1008.6 |
| 20260509225908 | 25 | 272 | 9.7 | 11.3 | 0.00 | 0.74 | 0.74 | 48 | 1008.3 |
| 20260509225405 | 26 | 221 | 3.2 | 4.8 | 0.00 | 0.74 | 0.74 | 48 | 1008.4 |
| 20260509224901 | 25 | 224 | 1.6 | 3.2 | 0.00 | 0.74 | 0.74 | 49 | 1008.3 |
| 20260509224357 | 25 | 263 | 6.4 | 6.4 | 0.00 | 0.74 | 0.74 | 49 | 1008.4 |
| 20260509223855 | 25 | 276 | 8.0 | 9.7 | 0.00 | 0.74 | 0.74 | 48 | 1008.3 |
| 20260509223351 | 25 | 294 | 4.8 | 6.4 | 0.00 | 0.74 | 0.74 | 47 | 1008.5 |
| 20260509222848 | 25 | 234 | 4.8 | 4.8 | 0.00 | 0.74 | 0.74 | 48 | 1008.3 |
| 20260509222343 | 25 | 292 | 3.2 | 3.2 | 0.00 | 0.74 | 0.74 | 45 | 1008.3 |
| 20260509221838 | 25 | 309 | 4.8 | 4.8 | 0.00 | 0.74 | 0.74 | 45 | 1008.2 |
| 20260509221336 | 25 | 182 | 3.2 | 3.2 | 0.00 | 0.74 | 0.74 | 49 | 1008.3 |
| 20260509220837 | 26 | 236 | 4.8 | 6.4 | 0.00 | 0.74 | 0.74 | 44 | 1008.3 |
| 20260509220333 | 25 | 326 | 4.8 | 4.8 | 0.00 | 0.74 | 0.74 | 48 | 1008.2 |
| 20260509215829 | 25 | 255 | 4.8 | 11.3 | 0.00 | 0.74 | 0.74 | 46 | 1008.2 |
| 20260509215326 | 25 | 200 | 3.2 | 3.2 | 0.00 | 0.74 | 0.74 | 45 | 1008.2 |
| 20260509214823 | 26 | 229 | 4.8 | 6.4 | 0.00 | 0.74 | 0.74 | 46 | 1008.3 |
| 20260509214320 | 26 | 188 | 4.8 | 6.4 | 0.00 | 0.74 | 0.74 | 45 | 1008.6 |
| 20260509213817 | 25 | 242 | 3.2 | 4.8 | 0.00 | 0.74 | 0.74 | 49 | 1008.6 |
| 20260509213312 | 26 | 239 | 4.8 | 6.4 | 0.00 | 0.74 | 0.74 | 45 | 1008.4 |
| 20260509212810 | 25 | 51 | 3.2 | 6.4 | 0.00 | 0.74 | 0.74 | 49 | 1008.4 |
| 20260509212307 | 25 | 212 | 8.0 | 11.3 | 0.00 | 0.74 | 0.74 | 46 | 1008.1 |
| 20260509211803 | 25 | 206 | 3.2 | 3.2 | 0.00 | 0.74 | 0.74 | 49 | 1008.0 |
| 20260509211259 | 25 | 223 | 4.8 | 4.8 | 0.00 | 0.74 | 0.74 | 48 | 1008.3 |
| 20260509210756 | 25 | 190 | 3.2 | 6.4 | 0.00 | 0.74 | 0.74 | 47 | 1008.3 |
| 20260509210254 | 25 | 261 | 3.2 | 4.8 | 0.00 | 0.74 | 0.74 | 48 | 1008.4 |
| 20260509205753 | 25 | 349 | 6.4 | 6.4 | 0.00 | 0.74 | 0.74 | 49 | 1008.6 |
| 20260509205248 | 25 | 243 | 8.0 | 14.5 | 0.00 | 0.74 | 0.74 | 47 | 1008.5 |
| 20260509204744 | 26 | 357 | 4.8 | 3.2 | 0.00 | 0.74 | 0.74 | 49 | 1008.6 |
| 20260509204240 | 26 | 219 | 3.2 | 3.2 | 0.00 | 0.74 | 0.74 | 51 | 1008.5 |
| 20260509203737 | 25 | 222 | 3.2 | 3.2 | 0.00 | 0.74 | 0.74 | 51 | 1008.6 |
| 20260509203235 | 25 | 346 | 6.4 | 9.7 | 0.00 | 0.74 | 0.74 | 48 | 1008.6 |
| 20260509202730 | 25 | 278 | 8.0 | 12.9 | 0.00 | 0.74 | 0.74 | 49 | 1008.5 |
| 20260509202226 | 25 | 190 | 3.2 | 4.8 | 0.00 | 0.74 | 0.74 | 52 | 1008.6 |
| 20260509201721 | 25 | 183 | 6.4 | 11.3 | 0.00 | 0.74 | 0.74 | 51 | 1008.4 |
| 20260509201218 | 25 | 54 | 3.2 | 3.2 | 0.00 | 0.74 | 0.74 | 55 | 1008.4 |
| 20260509200714 | 25 | 192 | 3.2 | 3.2 | 0.00 | 0.74 | 0.74 | 54 | 1008.8 |
| 20260509200209 | 25 | 68 | 1.6 | 1.6 | 0.00 | 0.74 | 0.74 | 55 | 1008.8 |
| 20260509195705 | 25 | 205 | 3.2 | 4.8 | 0.00 | 0.74 | 0.74 | 54 | 1008.8 |
| 20260509195201 | 24 | 31 | 3.2 | 3.2 | 0.00 | 0.74 | 0.74 | 54 | 1008.8 |
| 20260509194701 | 25 | 106 | 3.2 | 4.8 | 0.00 | 0.74 | 0.74 | 53 | 1008.8 |
| 20260509194158 | 24 | 158 | 0.0 | 0.0 | 0.00 | 0.74 | 0.74 | 57 | 1008.9 |
| 20260509193654 | 24 | 334 | 4.8 | 6.4 | 0.00 | 0.74 | 0.74 | 55 | 1008.9 |
| 20260509193149 | 24 | 335 | 8.0 | 9.7 | 0.00 | 0.74 | 0.74 | 55 | 1009.0 |
| 20260509192646 | 23 | 292 | 3.2 | 3.2 | 0.00 | 0.74 | 0.74 | 55 | 1009.0 |
| 20260509192141 | 24 | 155 | 0.0 | 0.0 | 0.00 | 0.74 | 0.74 | 58 | 1009.0 |
| 20260509191641 | 24 | 130 | 1.6 | 1.6 | 0.00 | 0.74 | 0.74 | 58 | 1008.8 |
| 20260509191138 | 23 | 331 | 4.8 | 9.7 | 0.00 | 0.74 | 0.74 | 57 | 1009.0 |
| 20260509190634 | 23 | 189 | 1.6 | 1.6 | 0.00 | 0.74 | 0.74 | 57 | 1008.8 |
| 20260509190132 | 23 | 137 | 1.6 | 1.6 | 0.00 | 0.74 | 0.74 | 59 | 1008.9 |
| 20260509185630 | 23 | 325 | 6.4 | 9.7 | 0.00 | 0.74 | 0.74 | 56 | 1008.9 |
| 20260509185125 | 23 | 53 | 6.4 | 11.3 | 0.00 | 0.74 | 0.74 | 56 | 1009.0 |
| 20260509184624 | 23 | 270 | 4.8 | 6.4 | 0.00 | 0.74 | 0.74 | 58 | 1009.0 |
| 20260509184120 | 23 | 137 | 1.6 | 1.6 | 0.00 | 0.74 | 0.74 | 60 | 1009.2 |
| 20260509183616 | 23 | 179 | 3.2 | 3.2 | 0.00 | 0.74 | 0.74 | 61 | 1009.2 |
| 20260509183112 | 23 | 266 | 1.6 | 1.6 | 0.00 | 0.74 | 0.74 | 61 | 1009.1 |
| 20260509182608 | 23 | 37 | 1.6 | 1.6 | 0.00 | 0.74 | 0.74 | 61 | 1009.2 |
| 20260509182105 | 22 | 156 | 3.2 | 3.2 | 0.00 | 0.74 | 0.74 | 64 | 1009.2 |
| 20260509181603 | 22 | 315 | 6.4 | 6.4 | 0.00 | 0.74 | 0.74 | 61 | 1009.4 |
| 20260509181100 | 22 | 138 | 1.6 | 1.6 | 0.00 | 0.74 | 0.74 | 65 | 1009.3 |
| 20260509180556 | 22 | 153 | 3.2 | 3.2 | 0.00 | 0.74 | 0.74 | 64 | 1009.2 |
| 20260509180054 | 22 | 153 | 3.2 | 4.8 | 0.00 | 0.74 | 0.74 | 63 | 1009.5 |
| 20260509175548 | 22 | 169 | 3.2 | 4.8 | 0.00 | 0.74 | 0.74 | 66 | 1009.4 |
| 20260509175046 | 21 | 94 | 1.6 | 1.6 | 0.00 | 0.74 | 0.74 | 68 | 1009.5 |
| 20260509174543 | 21 | 285 | 1.6 | 1.6 | 0.00 | 0.74 | 0.74 | 67 | 1009.6 |
| 20260509174038 | 21 | 48 | 3.2 | 4.8 | 0.00 | 0.74 | 0.74 | 68 | 1009.8 |
| 20260509173538 | 20 | 301 | 3.2 | 3.2 | 0.00 | 0.74 | 0.74 | 67 | 1009.9 |
| 20260509173034 | 20 | 117 | 1.6 | 1.6 | 0.00 | 0.74 | 0.74 | 66 | 1009.8 |
| 20260509172532 | 20 | 145 | 6.4 | 6.4 | 0.00 | 0.74 | 0.74 | 70 | 1010.1 |
| 20260509172027 | 20 | 285 | 3.2 | 4.8 | 0.00 | 0.74 | 0.74 | 70 | 1010.0 |
| 20260509171523 | 20 | 196 | 1.6 | 3.2 | 0.00 | 0.74 | 0.74 | 70 | 1010.1 |
| 20260509171020 | 20 | 155 | 0.0 | 0.0 | 0.00 | 0.74 | 0.74 | 71 | 1010.2 |
| 20260509170515 | 20 | 26 | 1.6 | 3.2 | 0.00 | 0.74 | 0.74 | 72 | 1010.2 |
| 20260509170012 | 20 | 219 | 3.2 | 4.8 | 0.00 | 0.74 | 0.74 | 74 | 1010.0 |
| 20260509165510 | 20 | 213 | 4.8 | 4.8 | 0.00 | 0.74 | 0.74 | 74 | 1010.2 |
| 20260509165006 | 19 | 251 | 8.0 | 11.3 | 0.00 | 0.74 | 0.74 | 74 | 1010.3 |
| 20260509164502 | 19 | 216 | 3.2 | 3.2 | 0.00 | 0.74 | 0.74 | 72 | 1010.3 |
| 20260509163958 | 18 | 330 | 3.2 | 4.8 | 0.00 | 0.74 | 0.74 | 75 | 1010.5 |
| 20260509163456 | 18 | 264 | 6.4 | 6.4 | 0.00 | 0.74 | 0.74 | 73 | 1010.3 |
| 20260509162955 | 18 | 161 | 3.2 | 3.2 | 0.00 | 0.74 | 0.74 | 75 | 1010.4 |
| 20260509162454 | 18 | 287 | 4.8 | 3.2 | 0.00 | 0.74 | 0.74 | 77 | 1010.4 |
| 20260509161949 | 17 | 251 | 3.2 | 4.8 | 0.00 | 0.74 | 0.74 | 80 | 1010.5 |
| 20260509161446 | 17 | 247 | 4.8 | 4.8 | 0.00 | 0.74 | 0.74 | 80 | 1010.2 |
| 20260509160941 | 17 | 4 | 3.2 | 4.8 | 0.00 | 0.74 | 0.74 | 80 | 1010.3 |
| 20260509160438 | 17 | 250 | 1.6 | 3.2 | 0.00 | 0.74 | 0.74 | 78 | 1010.5 |
| 20260509155932 | 17 | 196 | 4.8 | 4.8 | 0.00 | 0.74 | 0.74 | 79 | 1010.4 |
| 20260509155429 | 17 | 272 | 4.8 | 6.4 | 0.00 | 0.74 | 0.74 | 79 | 1010.3 |
| 20260509154926 | 16 | 318 | 4.8 | 4.8 | 0.00 | 0.74 | 0.74 | 83 | 1010.2 |
| 20260509154422 | 16 | 181 | 1.6 | 3.2 | 0.00 | 0.74 | 0.74 | 81 | 1010.3 |
| 20260509153920 | 16 | 54 | 3.2 | 4.8 | 0.00 | 0.74 | 0.74 | 81 | 1010.4 |
| 20260509153416 | 16 | 124 | 1.6 | 1.6 | 0.00 | 0.74 | 0.74 | 84 | 1010.1 |
| 20260509152913 | 16 | 291 | 9.7 | 11.3 | 0.00 | 0.74 | 0.74 | 83 | 1009.9 |
| 20260509152409 | 16 | 270 | 3.2 | 3.2 | 0.00 | 0.74 | 0.74 | 84 | 1009.8 |
| 20260509151907 | 16 | 175 | 1.6 | 3.2 | 0.00 | 0.74 | 0.74 | 84 | 1009.7 |
| 20260509151402 | 15 | 307 | 6.4 | 9.7 | 0.00 | 0.74 | 0.74 | 87 | 1009.8 |
| 20260509150901 | 15 | 250 | 3.2 | 3.2 | 0.00 | 0.74 | 0.74 | 86 | 1009.7 |
| 20260509150358 | 15 | 200 | 4.8 | 4.8 | 0.00 | 0.74 | 0.74 | 87 | 1009.8 |
| 20260509145856 | 15 | 62 | 1.6 | 1.6 | 0.00 | 0.74 | 0.74 | 87 | 1009.8 |
| 20260509145350 | 15 | 213 | 4.8 | 4.8 | 0.00 | 0.74 | 0.74 | 86 | 1009.6 |
| 20260509144847 | 15 | 156 | 1.6 | 1.6 | 0.00 | 0.74 | 0.74 | 88 | 1009.7 |
| 20260509144344 | 15 | 237 | 1.6 | 1.6 | 0.00 | 0.74 | 0.74 | 88 | 1009.6 |
| 20260509143841 | 15 | 194 | 3.2 | 3.2 | 0.00 | 0.74 | 0.74 | 89 | 1009.7 |
| 20260509143338 | 15 | 209 | 6.4 | 9.7 | 0.00 | 0.74 | 0.74 | 88 | 1009.6 |
| 20260509142834 | 15 | 190 | 3.2 | 3.2 | 0.00 | 0.74 | 0.74 | 88 | 1009.6 |
| 20260509142331 | 14 | 208 | 3.2 | 3.2 | 0.00 | 0.74 | 0.74 | 90 | 1009.7 |
| 20260509141826 | 14 | 190 | 3.2 | 3.2 | 0.00 | 0.74 | 0.74 | 91 | 1009.9 |
| 20260509141328 | 14 | 260 | 4.8 | 4.8 | 0.00 | 0.74 | 0.74 | 90 | 1009.8 |
| 20260509140820 | 14 | 195 | 8.0 | 9.7 | 0.00 | 0.74 | 0.74 | 89 | 1009.9 |
| 20260509140317 | 14 | 198 | 3.2 | 3.2 | 0.00 | 0.74 | 0.74 | 92 | 1010.0 |
| 20260509135815 | 14 | 215 | 4.8 | 4.8 | 0.00 | 0.74 | 0.74 | 92 | 1009.8 |
| 20260509135312 | 13 | 176 | 0.0 | 1.6 | 0.00 | 0.74 | 0.74 | 93 | 1010.0 |
| 20260509134809 | 13 | 166 | 1.6 | 1.6 | 0.00 | 0.74 | 0.74 | 93 | 1009.7 |
| 20260509134307 | 13 | 175 | 1.6 | 1.6 | 0.00 | 0.74 | 0.74 | 94 | 1009.6 |
| 20260509133804 | 14 | 229 | 6.4 | 6.4 | 0.00 | 0.74 | 0.74 | 94 | 1009.8 |
| 20260509133300 | 14 | 206 | 1.6 | 1.6 | 0.00 | 0.74 | 0.74 | 94 | 1009.8 |
| 20260509132759 | 14 | 159 | 0.0 | 0.0 | 0.00 | 0.74 | 0.74 | 94 | 1009.6 |
| 20260509132257 | 13 | 166 | 3.2 | 3.2 | 0.00 | 0.74 | 0.74 | 95 | 1009.3 |
| 20260509131753 | 13 | 162 | 1.6 | 3.2 | 0.00 | 0.74 | 0.74 | 96 | 1009.5 |
| 20260509131250 | 13 | 190 | 3.2 | 3.2 | 0.00 | 0.74 | 0.74 | 96 | 1009.6 |
| 20260509130746 | 13 | 159 | 1.6 | 3.2 | 0.00 | 0.74 | 0.74 | 97 | 1009.6 |
| 20260509130242 | 13 | 101 | 1.6 | 1.6 | 0.00 | 0.74 | 0.74 | 97 | 1009.6 |
| 20260509125739 | 13 | 185 | 1.6 | 3.2 | 0.00 | 0.74 | 0.74 | 97 | 1009.5 |
| 20260509125236 | 13 | 175 | 1.6 | 3.2 | 0.00 | 0.74 | 0.74 | 98 | 1009.4 |
| 20260509124732 | 13 | 344 | 1.6 | 1.6 | 0.00 | 0.74 | 0.74 | 98 | 1009.4 |
| 20260509124229 | 13 | 174 | 1.6 | 1.6 | 0.00 | 0.74 | 0.74 | 98 | 1009.5 |
| 20260509123727 | 12 | 273 | 1.6 | 3.2 | 0.00 | 0.74 | 0.74 | 98 | 1009.6 |
| 20260509123224 | 13 | 20 | 3.2 | 3.2 | 0.00 | 0.74 | 0.74 | 98 | 1009.4 |
| 20260509122720 | 13 | 238 | 3.2 | 3.2 | 0.00 | 0.74 | 0.74 | 98 | 1009.4 |
| 20260509122217 | 13 | 165 | 1.6 | 1.6 | 0.00 | 0.74 | 0.74 | 98 | 1009.3 |
| 20260509121713 | 12 | 171 | 1.6 | 1.6 | 0.00 | 0.74 | 0.74 | 98 | 1009.5 |
| 20260509121211 | 12 | 143 | 0.0 | 0.0 | 0.00 | 0.74 | 0.74 | 99 | 1009.6 |
| 20260509120709 | 12 | 153 | 0.0 | 0.0 | 0.00 | 0.74 | 0.74 | 99 | 1009.2 |
| 20260509120207 | 12 | 149 | 0.0 | 0.0 | 0.00 | 0.74 | 0.74 | 99 | 1009.3 |
| 20260509115704 | 11 | 145 | 0.0 | 0.0 | 0.00 | 0.74 | 0.74 | 99 | 1009.0 |
| 20260509115201 | 11 | 143 | 0.0 | 0.0 | 0.00 | 0.74 | 0.74 | 99 | 1009.3 |
| 20260509114700 | 11 | 141 | 0.0 | 0.0 | 0.00 | 0.74 | 0.74 | 99 | 1009.1 |
| 20260509114158 | 11 | 137 | 0.0 | 0.0 | 0.00 | 0.74 | 0.74 | 99 | 1009.0 |
| 20260509113656 | 11 | 128 | 0.0 | 0.0 | 0.00 | 0.74 | 0.74 | 99 | 1008.9 |
| 20260509113153 | 11 | 118 | 1.6 | 1.6 | 0.00 | 0.74 | 0.74 | 99 | 1009.1 |
| 20260509112649 | 11 | 118 | 1.6 | 1.6 | 0.00 | 0.74 | 0.74 | 99 | 1009.1 |
| 20260509112147 | 11 | 119 | 0.0 | 0.0 | 0.00 | 0.74 | 0.74 | 99 | 1009.0 |
| 20260509111644 | 11 | 119 | 0.0 | 0.0 | 0.00 | 0.74 | 0.74 | 99 | 1008.9 |
| 20260509111140 | 11 | 119 | 0.0 | 0.0 | 0.00 | 0.74 | 0.74 | 99 | 1009.1 |
| 20260509110638 | 11 | 119 | 1.6 | 1.6 | 0.00 | 0.74 | 0.74 | 98 | 1009.0 |
| 20260509110135 | 11 | 119 | 0.0 | 0.0 | 0.00 | 0.74 | 0.74 | 98 | 1008.7 |
| 20260509105633 | 11 | 119 | 0.0 | 0.0 | 0.00 | 0.74 | 0.74 | 98 | 1008.8 |